Time;durP1;ratioP1;P1;durP2;ratioP2;P2;SDS_P1;SDS_P2;PMS_P1;PMS_P2;Temp;Humidity;BMP_temperature;BMP_pressure;BME280_temperature;BME280_humidity;BME280_pressure;Samples;Min_cycle;Max_cycle;Signal;HPM_P1;HPM_P2
2022/09/20 00:01:49;;;;;;;0.00;0.00;;;13.70;99.90;;;;;;5042795;28;20037;-71
2022/09/20 00:04:14;;;;;;;0.40;0.40;;;13.60;99.90;;;;;;5047809;28;20056;-71
2022/09/20 00:06:40;;;;;;;2.55;1.10;;;13.60;99.90;;;;;;5048468;28;20041;-71
2022/09/20 00:09:05;;;;;;;0.10;0.10;;;13.60;99.90;;;;;;5039265;28;20056;-71
2022/09/20 00:11:33;;;;;;;0.10;0.10;;;13.60;99.90;;;;;;5048512;28;20045;-71
2022/09/20 00:14:00;;;;;;;0.10;0.10;;;13.60;99.90;;;;;;5044150;28;20047;-71
2022/09/20 00:16:30;;;;;;;0.65;0.65;;;13.50;99.90;;;;;;5008587;28;20445;-71
2022/09/20 00:18:58;;;;;;;0.75;0.73;;;13.60;99.90;;;;;;5025703;28;20045;-71
2022/09/20 00:21:27;;;;;;;0.73;0.57;;;13.60;99.90;;;;;;5032342;28;20436;-71
2022/09/20 00:23:53;;;;;;;0.10;0.10;;;13.60;99.90;;;;;;5047874;28;20493;-71
2022/09/20 00:26:19;;;;;;;0.00;0.00;;;13.70;99.90;;;;;;5040075;28;20045;-71
2022/09/20 00:28:45;;;;;;;0.00;0.00;;;13.60;99.90;;;;;;5048688;28;20044;-71
2022/09/20 00:31:12;;;;;;;0.08;0.08;;;13.70;99.90;;;;;;5047472;28;20037;-71
2022/09/20 00:36:21;;;;;;;0.00;0.00;;;13.60;99.90;;;;;;5040459;28;20049;-71
2022/09/20 00:38:47;;;;;;;0.10;0.10;;;13.60;99.90;;;;;;5041857;28;20049;-71
2022/09/20 00:41:13;;;;;;;0.00;0.00;;;13.60;99.90;;;;;;5027310;28;20052;-71
2022/09/20 00:43:45;;;;;;;0.52;0.52;;;13.60;99.90;;;;;;5028913;28;20568;-71
2022/09/20 00:46:28;;;;;;;0.10;0.10;;;13.50;99.90;;;;;;5028931;28;20051;-71
2022/09/20 00:49:07;;;;;;;0.10;0.10;;;13.50;99.90;;;;;;5048533;28;20057;-71
2022/09/20 00:51:36;;;;;;;0.03;0.03;;;13.60;99.90;;;;;;5033696;28;20569;-72
2022/09/20 00:54:05;;;;;;;0.00;0.00;;;13.50;99.90;;;;;;5048317;28;20045;-71
2022/09/20 00:56:34;;;;;;;0.10;0.10;;;13.50;99.90;;;;;;5047445;28;20059;-71
2022/09/20 00:59:29;;;;;;;0.10;0.10;;;13.50;99.90;;;;;;5031168;28;20124;-71
2022/09/20 01:02:06;;;;;;;0.00;0.00;;;13.40;99.90;;;;;;5030008;28;20046;-71
2022/09/20 01:04:33;;;;;;;0.65;0.65;;;13.50;99.90;;;;;;5010667;28;20041;-71
2022/09/20 01:07:02;;;;;;;0.05;0.05;;;13.50;99.90;;;;;;5018566;28;20049;-71
2022/09/20 01:09:28;;;;;;;0.30;0.30;;;13.50;99.90;;;;;;5052126;28;20139;-71
2022/09/20 01:11:55;;;;;;;0.10;0.10;;;13.40;99.90;;;;;;5052187;28;20120;-71
2022/09/20 01:14:23;;;;;;;0.10;0.10;;;13.40;99.90;;;;;;5036410;28;20049;-71
2022/09/20 01:16:54;;;;;;;0.10;0.10;;;13.40;99.90;;;;;;5030911;28;20053;-71
2022/09/20 01:19:39;;;;;;;0.00;0.00;;;13.40;99.90;;;;;;5012050;28;20069;-71
2022/09/20 01:22:14;;;;;;;0.00;0.00;;;13.40;99.90;;;;;;5024623;28;20029;-71
2022/09/20 01:25:09;;;;;;;0.00;0.00;;;13.40;99.90;;;;;;5052298;28;20049;-72
2022/09/20 01:27:49;;;;;;;0.10;0.10;;;13.40;99.90;;;;;;5039682;28;20052;-71
2022/09/20 01:30:24;;;;;;;0.05;0.05;;;13.40;99.90;;;;;;5043482;28;20064;-72
2022/09/20 01:33:13;;;;;;;0.10;0.10;;;13.40;99.90;;;;;;5031924;28;20077;-72
2022/09/20 01:35:43;;;;;;;0.10;0.10;;;13.40;99.90;;;;;;5044412;28;20168;-71
2022/09/20 01:38:27;;;;;;;0.10;0.10;;;13.40;99.90;;;;;;5029918;28;20052;-71
2022/09/20 01:40:55;;;;;;;0.00;0.00;;;13.50;99.90;;;;;;5031381;28;20678;-71
2022/09/20 01:43:45;;;;;;;0.03;0.03;;;13.50;99.90;;;;;;5026160;28;20079;-71
2022/09/20 01:46:31;;;;;;;0.05;0.05;;;13.50;99.90;;;;;;5031329;28;20041;-71
2022/09/20 01:49:35;;;;;;;0.40;0.40;;;13.40;99.90;;;;;;5030957;28;20481;-71
2022/09/20 01:52:33;;;;;;;0.57;0.57;;;13.50;99.90;;;;;;5045256;28;20044;-71
2022/09/20 01:55:20;;;;;;;0.10;0.10;;;13.50;99.90;;;;;;5044350;28;20118;-71
2022/09/20 01:58:19;;;;;;;0.10;0.10;;;13.40;99.90;;;;;;5040974;28;20042;-71
2022/09/20 02:01:17;;;;;;;0.10;0.10;;;13.40;99.90;;;;;;5010377;28;20058;-71
2022/09/20 02:04:04;;;;;;;0.30;0.30;;;13.40;99.90;;;;;;5024342;28;20504;-71
2022/09/20 02:06:47;;;;;;;0.47;0.47;;;13.30;99.90;;;;;;5031487;28;20046;-71
2022/09/20 02:09:44;;;;;;;0.10;0.10;;;13.20;99.90;;;;;;5020968;28;20081;-71
2022/09/20 02:12:35;;;;;;;0.10;0.10;;;13.20;99.90;;;;;;5025466;28;20057;-71
2022/09/20 02:15:27;;;;;;;0.00;0.00;;;13.20;99.90;;;;;;5046762;28;20143;-71
2022/09/20 02:18:26;;;;;;;0.10;0.10;;;13.20;99.90;;;;;;5010625;28;20050;-71
2022/09/20 02:21:10;;;;;;;0.10;0.10;;;13.20;99.90;;;;;;5010356;28;20059;-71
2022/09/20 02:24:00;;;;;;;0.10;0.10;;;13.20;99.90;;;;;;5029996;28;20044;-71
2022/09/20 02:26:41;;;;;;;0.10;0.10;;;13.20;99.90;;;;;;5049523;28;20051;-70
2022/09/20 02:29:44;;;;;;;0.00;0.00;;;13.20;99.90;;;;;;5042213;28;20127;-71
2022/09/20 02:32:30;;;;;;;0.10;0.10;;;13.10;99.90;;;;;;5042265;28;20053;-71
2022/09/20 02:35:24;;;;;;;0.00;0.00;;;13.10;99.90;;;;;;5027168;28;20056;-71
2022/09/20 02:38:12;;;;;;;0.10;0.10;;;13.00;99.90;;;;;;5028618;28;20100;-70
2022/09/20 02:41:00;;;;;;;0.10;0.10;;;13.00;99.90;;;;;;5031034;28;20524;-71
2022/09/20 02:43:39;;;;;;;0.10;0.10;;;12.90;99.90;;;;;;5024606;28;20493;-71
2022/09/20 02:46:12;;;;;;;0.00;0.00;;;12.90;99.90;;;;;;5049629;28;20398;-71
2022/09/20 02:49:00;;;;;;;0.10;0.10;;;12.80;99.90;;;;;;5049932;28;20041;-71
2022/09/20 02:51:35;;;;;;;0.10;0.10;;;12.80;99.90;;;;;;5030305;28;20045;-71
2022/09/20 02:54:14;;;;;;;0.10;0.10;;;12.80;99.90;;;;;;5011247;28;20054;-71
2022/09/20 02:57:04;;;;;;;0.10;0.10;;;12.80;99.90;;;;;;5036162;28;20091;-71
2022/09/20 02:59:49;;;;;;;0.10;0.10;;;12.80;99.90;;;;;;5010228;28;20057;-71
2022/09/20 03:02:44;;;;;;;0.10;0.10;;;12.70;99.90;;;;;;5028022;28;20056;-71
2022/09/20 03:05:31;;;;;;;0.10;0.10;;;12.60;99.90;;;;;;5047896;28;20053;-71
2022/09/20 03:08:23;;;;;;;0.20;0.20;;;12.70;99.90;;;;;;5019746;28;20045;-71
2022/09/20 03:11:01;;;;;;;0.10;0.10;;;12.60;99.90;;;;;;5010605;28;20091;-71
2022/09/20 03:13:54;;;;;;;0.00;0.00;;;12.60;99.90;;;;;;5028949;28;20132;-71
2022/09/20 03:16:57;;;;;;;0.10;0.10;;;12.60;99.90;;;;;;5029742;28;20148;-71
2022/09/20 03:19:48;;;;;;;0.10;0.10;;;12.50;99.90;;;;;;5031722;28;20559;-71
2022/09/20 03:22:30;;;;;;;0.10;0.10;;;12.60;99.90;;;;;;5048579;28;20055;-71
2022/09/20 03:25:14;;;;;;;0.00;0.00;;;12.50;99.90;;;;;;5050105;28;20052;-71
2022/09/20 03:28:26;;;;;;;0.32;0.32;;;12.50;99.90;;;;;;5009770;28;20097;-71
2022/09/20 03:31:21;;;;;;;0.63;0.57;;;12.50;99.90;;;;;;5044354;28;20044;-71
2022/09/20 03:34:19;;;;;;;0.00;0.00;;;12.50;99.90;;;;;;5046201;28;20516;-71
2022/09/20 03:36:54;;;;;;;0.00;0.00;;;12.50;99.90;;;;;;5030690;28;20144;-71
2022/09/20 03:39:38;;;;;;;0.10;0.10;;;12.50;99.90;;;;;;5030005;28;20083;-71
2022/09/20 03:42:19;;;;;;;0.10;0.10;;;12.50;99.90;;;;;;5022131;28;20042;-71
2022/09/20 03:45:05;;;;;;;0.08;0.08;;;12.50;99.90;;;;;;5028560;28;20046;-71
2022/09/20 03:47:41;;;;;;;0.00;0.00;;;12.50;99.90;;;;;;5029139;28;20045;-71
2022/09/20 03:50:49;;;;;;;0.00;0.00;;;12.50;99.90;;;;;;5031079;28;20045;-71
2022/09/20 03:53:46;;;;;;;0.00;0.00;;;12.50;99.90;;;;;;5038348;28;20080;-71
2022/09/20 03:56:42;;;;;;;0.00;0.00;;;12.50;99.90;;;;;;5045062;28;20590;-71
2022/09/20 03:59:25;;;;;;;0.10;0.10;;;12.50;99.90;;;;;;5041464;28;20041;-71
2022/09/20 04:02:21;;;;;;;0.10;0.10;;;12.50;99.90;;;;;;5020863;28;20049;-72
2022/09/20 04:04:59;;;;;;;0.10;0.10;;;12.50;99.90;;;;;;5028122;28;20409;-71
2022/09/20 04:07:53;;;;;;;0.20;0.20;;;12.50;99.90;;;;;;5022077;28;20041;-71
2022/09/20 04:10:36;;;;;;;0.10;0.10;;;12.50;99.90;;;;;;5027294;28;20102;-72
2022/09/20 04:13:22;;;;;;;1.15;1.15;;;12.50;99.90;;;;;;5042047;28;20128;-71
2022/09/20 04:16:19;;;;;;;0.10;0.10;;;12.50;99.90;;;;;;5043876;28;20473;-71
2022/09/20 04:18:57;;;;;;;0.00;0.00;;;12.60;99.90;;;;;;5026483;28;20041;-71
2022/09/20 04:21:30;;;;;;;0.10;0.10;;;12.60;99.90;;;;;;5017069;28;20041;-71
2022/09/20 04:24:00;;;;;;;0.10;0.10;;;12.60;99.90;;;;;;5026843;28;20523;-71
2022/09/20 04:26:31;;;;;;;0.10;0.10;;;12.60;99.90;;;;;;5032583;28;20056;-71
2022/09/20 04:29:15;;;;;;;0.10;0.10;;;12.60;99.90;;;;;;5009662;28;20084;-71
2022/09/20 04:32:09;;;;;;;0.10;0.10;;;12.60;99.90;;;;;;5020185;28;20112;-71
2022/09/20 04:37:35;;;;;;;0.10;0.10;;;12.60;99.90;;;;;;5036818;28;20061;-71
2022/09/20 04:40:31;;;;;;;0.10;0.10;;;12.70;99.90;;;;;;5037694;28;20616;-71
2022/09/20 04:43:30;;;;;;;0.10;0.10;;;12.60;99.90;;;;;;5008201;28;20119;-72
2022/09/20 04:46:21;;;;;;;0.10;0.10;;;12.60;99.90;;;;;;5008800;28;20466;-72
2022/09/20 04:49:18;;;;;;;0.03;0.03;;;12.60;99.90;;;;;;5014590;28;20802;-72
2022/09/20 04:52:04;;;;;;;0.00;0.00;;;12.70;99.90;;;;;;5038125;28;20486;-71
2022/09/20 04:54:51;;;;;;;0.20;0.20;;;12.60;99.90;;;;;;5028053;28;20030;-72
2022/09/20 04:57:38;;;;;;;0.10;0.10;;;12.60;99.90;;;;;;5025137;28;20069;-72
2022/09/20 05:00:07;;;;;;;0.00;0.00;;;12.70;99.90;;;;;;5028266;28;20061;-71
2022/09/20 05:02:36;;;;;;;0.00;0.00;;;12.60;99.90;;;;;;5028901;28;20060;-72
2022/09/20 05:05:34;;;;;;;0.00;0.00;;;12.60;99.90;;;;;;5029892;28;20056;-71
2022/09/20 05:08:09;;;;;;;0.17;0.17;;;12.60;99.90;;;;;;5027782;28;20049;-72
2022/09/20 05:11:03;;;;;;;0.03;0.03;;;12.60;99.90;;;;;;5036264;28;20057;-72
2022/09/20 05:13:38;;;;;;;0.00;0.00;;;12.60;99.90;;;;;;5027220;28;20049;-72
2022/09/20 05:16:41;;;;;;;0.10;0.10;;;12.60;99.90;;;;;;5028678;28;20253;-72
2022/09/20 05:19:31;;;;;;;0.00;0.00;;;12.60;99.90;;;;;;5046621;28;20128;-71
2022/09/20 05:22:25;;;;;;;0.10;0.10;;;12.70;99.90;;;;;;5048149;28;20055;-71
2022/09/20 05:25:12;;;;;;;0.10;0.10;;;12.60;99.90;;;;;;5028134;28;20050;-71
2022/09/20 05:27:45;;;;;;;1.85;0.63;;;12.60;99.90;;;;;;5025820;28;20088;-71
2022/09/20 05:30:21;;;;;;;0.10;0.10;;;12.60;99.90;;;;;;5039997;28;20476;-71
2022/09/20 05:33:09;;;;;;;0.00;0.00;;;12.60;99.90;;;;;;5026925;28;20038;-72
2022/09/20 05:35:56;;;;;;;1.55;1.13;;;12.60;99.90;;;;;;5028002;28;20489;-71
2022/09/20 05:38:48;;;;;;;0.22;0.22;;;12.60;99.90;;;;;;5026767;28;20088;-71
2022/09/20 05:41:41;;;;;;;0.10;0.10;;;12.50;99.90;;;;;;5024420;28;20633;-72
2022/09/20 05:44:15;;;;;;;0.05;0.05;;;12.50;99.90;;;;;;5042907;28;20515;-72
2022/09/20 05:47:04;;;;;;;0.10;0.10;;;12.50;99.90;;;;;;5023942;28;20050;-72
2022/09/20 05:49:50;;;;;;;0.00;0.00;;;12.40;99.90;;;;;;5034821;28;20097;-72
2022/09/20 05:52:40;;;;;;;0.10;0.10;;;12.40;99.90;;;;;;5015558;28;20061;-71
2022/09/20 05:55:14;;;;;;;0.10;0.10;;;12.40;99.90;;;;;;5042422;28;20464;-72
2022/09/20 05:58:00;;;;;;;0.10;0.10;;;12.50;99.90;;;;;;5031555;28;20049;-71
2022/09/20 06:00:31;;;;;;;0.90;0.65;;;12.40;99.90;;;;;;5031604;28;20054;-72
2022/09/20 06:03:15;;;;;;;0.10;0.10;;;12.40;99.90;;;;;;5048311;28;20088;-72
2022/09/20 06:06:03;;;;;;;0.10;0.10;;;12.50;99.90;;;;;;5042991;28;20053;-72
2022/09/20 06:08:59;;;;;;;0.10;0.10;;;12.50;99.90;;;;;;5026922;28;20060;-72
2022/09/20 06:11:50;;;;;;;0.10;0.10;;;12.50;99.90;;;;;;5019458;28;20114;-72
2022/09/20 06:14:52;;;;;;;0.00;0.00;;;12.50;99.90;;;;;;5023234;28;20123;-72
2022/09/20 06:18:08;;;;;;;0.17;0.17;;;12.50;99.90;;;;;;5009542;28;20128;-72
2022/09/20 06:21:02;;;;;;;0.00;0.00;;;12.60;99.90;;;;;;5004132;28;20045;-71
2022/09/20 06:23:30;;;;;;;0.10;0.10;;;12.70;99.90;;;;;;5032049;28;20056;-71
2022/09/20 06:26:01;;;;;;;0.20;0.20;;;12.70;99.90;;;;;;5030662;28;20050;-71
2022/09/20 06:28:33;;;;;;;0.13;0.13;;;12.80;99.90;;;;;;5023013;28;20053;-71
2022/09/20 06:30:59;;;;;;;0.10;0.10;;;12.80;99.90;;;;;;5034970;28;20045;-71
2022/09/20 06:33:29;;;;;;;0.10;0.10;;;12.80;99.90;;;;;;5021287;28;20501;-71
2022/09/20 06:41:44;;;;;;;0.10;0.10;;;12.90;99.90;;;;;;5029777;28;20497;-71
2022/09/20 06:44:09;;;;;;;0.10;0.10;;;13.00;99.90;;;;;;5038351;28;20072;-72
2022/09/20 06:46:35;;;;;;;0.10;0.10;;;13.00;99.90;;;;;;5035203;28;20042;-72
2022/09/20 06:49:01;;;;;;;0.10;0.10;;;13.10;99.90;;;;;;5024287;28;20042;-72
2022/09/20 06:51:33;;;;;;;0.10;0.10;;;13.10;99.90;;;;;;5018262;28;20542;-72
2022/09/20 06:53:59;;;;;;;0.10;0.10;;;13.20;99.90;;;;;;5042193;28;20152;-72
2022/09/20 06:56:28;;;;;;;0.10;0.10;;;13.20;99.90;;;;;;5019468;28;20080;-72
2022/09/20 06:58:54;;;;;;;0.20;0.20;;;13.30;99.90;;;;;;5049686;28;20519;-72
2022/09/20 07:01:20;;;;;;;0.00;0.00;;;13.30;99.90;;;;;;5035584;28;20082;-71
2022/09/20 07:03:46;;;;;;;0.10;0.10;;;13.30;99.90;;;;;;5040089;28;20045;-72
2022/09/20 07:06:15;;;;;;;2.40;0.68;;;13.40;99.90;;;;;;5018813;28;20536;-72
2022/09/20 07:08:41;;;;;;;0.05;0.05;;;13.40;99.90;;;;;;5050064;28;20151;-71
2022/09/20 07:11:12;;;;;;;0.10;0.10;;;13.40;99.90;;;;;;5044206;28;20123;-72
2022/09/20 07:13:38;;;;;;;1.75;0.47;;;13.40;99.90;;;;;;5028484;28;20053;-71
2022/09/20 07:16:06;;;;;;;0.10;0.10;;;13.30;99.90;;;;;;5024957;28;20397;-71
2022/09/20 07:18:32;;;;;;;0.10;0.10;;;13.30;99.90;;;;;;5028698;28;20061;-70
2022/09/20 07:20:59;;;;;;;0.10;0.10;;;13.30;99.90;;;;;;5028901;28;20384;-70
2022/09/20 07:23:26;;;;;;;0.20;0.20;;;13.30;99.90;;;;;;5028601;28;20049;-70
2022/09/20 07:25:53;;;;;;;0.10;0.10;;;13.30;99.90;;;;;;5018422;28;20041;-70
2022/09/20 07:28:19;;;;;;;0.10;0.10;;;13.40;99.90;;;;;;5029867;28;20881;-70
2022/09/20 07:30:46;;;;;;;1.38;0.22;;;13.40;99.90;;;;;;5032001;28;20636;-70
2022/09/20 07:33:18;;;;;;;0.22;0.22;;;13.40;99.90;;;;;;5033687;28;20481;-71
2022/09/20 07:35:45;;;;;;;0.00;0.00;;;13.40;99.90;;;;;;5028095;28;20049;-70
2022/09/20 07:38:11;;;;;;;0.05;0.05;;;13.40;99.90;;;;;;5029539;28;20045;-70
2022/09/20 07:40:36;;;;;;;0.00;0.00;;;13.50;99.90;;;;;;5034205;28;20056;-70
2022/09/20 07:43:02;;;;;;;0.00;0.00;;;13.50;99.90;;;;;;5041523;28;20053;-70
2022/09/20 07:45:28;;;;;;;0.00;0.00;;;13.60;99.90;;;;;;5041678;28;20044;-71
2022/09/20 07:47:53;;;;;;;0.00;0.00;;;13.60;99.90;;;;;;5029237;28;20052;-71
2022/09/20 07:50:19;;;;;;;4.95;1.05;;;13.70;99.90;;;;;;5034309;28;20484;-71
2022/09/20 07:52:44;;;;;;;0.00;0.00;;;13.70;99.90;;;;;;5038382;28;20076;-71
2022/09/20 07:55:10;;;;;;;0.10;0.10;;;13.80;99.90;;;;;;5043523;28;20037;-71
2022/09/20 07:57:37;;;;;;;0.10;0.10;;;13.80;99.90;;;;;;5021162;28;20049;-71
2022/09/20 08:00:05;;;;;;;0.00;0.00;;;13.80;99.90;;;;;;5025358;28;20520;-71
2022/09/20 08:02:31;;;;;;;0.10;0.10;;;13.90;99.90;;;;;;5029116;28;20393;-71
2022/09/20 08:04:57;;;;;;;0.00;0.00;;;14.00;99.90;;;;;;5029500;28;20045;-71
2022/09/20 08:07:23;;;;;;;0.43;0.43;;;14.10;99.90;;;;;;5026643;28;20080;-71
2022/09/20 08:09:49;;;;;;;0.10;0.10;;;14.10;99.90;;;;;;5023349;28;20456;-71
2022/09/20 08:12:16;;;;;;;0.00;0.00;;;14.20;99.90;;;;;;5028781;28;20045;-71
2022/09/20 08:14:41;;;;;;;0.00;0.00;;;14.40;99.90;;;;;;5040962;28;20112;-71
2022/09/20 08:17:09;;;;;;;0.00;0.00;;;14.50;99.90;;;;;;5046144;28;20123;-71
2022/09/20 08:19:38;;;;;;;0.10;0.10;;;14.50;99.90;;;;;;5029426;28;20053;-71
2022/09/20 08:22:03;;;;;;;0.10;0.10;;;14.50;99.90;;;;;;5033988;28;20041;-71
2022/09/20 08:24:29;;;;;;;0.10;0.10;;;14.50;99.90;;;;;;5037608;28;20056;-70
2022/09/20 08:26:55;;;;;;;0.00;0.00;;;14.50;99.90;;;;;;5047379;28;20128;-70
2022/09/20 08:29:21;;;;;;;0.00;0.00;;;14.50;99.90;;;;;;5027445;28;20048;-70
2022/09/20 08:31:46;;;;;;;0.10;0.10;;;14.60;99.90;;;;;;5036816;28;20037;-71
2022/09/20 08:34:13;;;;;;;0.10;0.10;;;14.60;99.90;;;;;;5022551;28;20076;-70
2022/09/20 08:36:44;;;;;;;0.10;0.10;;;14.70;99.90;;;;;;5042349;28;20041;-71
2022/09/20 08:39:10;;;;;;;0.60;0.25;;;14.70;99.90;;;;;;5029602;28;20083;-71
2022/09/20 08:41:54;;;;;;;0.10;0.10;;;14.60;99.90;;;;;;5022503;28;20474;-70
2022/09/20 08:44:33;;;;;;;0.05;0.05;;;14.70;99.90;;;;;;5047817;28;20142;-71
2022/09/20 08:47:03;;;;;;;0.10;0.10;;;14.70;99.90;;;;;;5048267;28;20603;-71
2022/09/20 08:49:29;;;;;;;0.10;0.10;;;14.80;99.90;;;;;;5021436;28;20060;-71
2022/09/20 08:51:58;;;;;;;0.08;0.08;;;14.90;99.90;;;;;;5044241;28;20460;-71
2022/09/20 08:54:28;;;;;;;0.00;0.00;;;15.00;99.90;;;;;;5048491;28;20048;-71
2022/09/20 08:56:54;;;;;;;0.05;0.05;;;15.00;99.90;;;;;;5027812;28;20527;-70
2022/09/20 08:59:21;;;;;;;0.10;0.10;;;15.10;99.90;;;;;;5027697;28;20053;-71
2022/09/20 09:01:48;;;;;;;0.00;0.00;;;15.30;99.90;;;;;;5032751;28;20045;-70
2022/09/20 09:04:20;;;;;;;0.10;0.10;;;15.30;99.90;;;;;;5025991;28;20057;-71
2022/09/20 09:06:46;;;;;;;0.10;0.10;;;15.80;99.90;;;;;;5035812;28;20041;-71
2022/09/20 09:09:19;;;;;;;0.10;0.10;;;16.20;99.90;;;;;;5025006;28;20490;-70
2022/09/20 09:11:48;;;;;;;0.10;0.10;;;17.10;99.90;;;;;;5048073;28;20045;-71
2022/09/20 09:14:47;;;;;;;0.10;0.10;;;17.90;99.90;;;;;;5048194;28;20049;-71
2022/09/20 09:17:15;;;;;;;0.10;0.10;;;18.10;99.90;;;;;;5018859;28;20068;-71
2022/09/20 09:19:52;;;;;;;0.08;0.08;;;17.90;99.90;;;;;;5029579;28;20116;-71
2022/09/20 09:22:40;;;;;;;0.00;0.00;;;17.80;99.90;;;;;;5021188;28;20076;-71
2022/09/20 09:25:21;;;;;;;0.00;0.00;;;17.50;99.90;;;;;;5050017;28;20848;-71
2022/09/20 09:27:53;;;;;;;0.00;0.00;;;17.20;99.90;;;;;;5051810;28;20095;-71
2022/09/20 09:30:22;;;;;;;2.83;0.45;;;17.10;99.90;;;;;;5039672;28;20049;-71
2022/09/20 09:32:48;;;;;;;0.10;0.10;;;17.10;99.90;;;;;;5031507;28;20124;-71
2022/09/20 09:35:19;;;;;;;0.10;0.10;;;16.80;99.90;;;;;;5046721;28;20127;-71
2022/09/20 09:38:00;;;;;;;0.00;0.00;;;16.70;99.90;;;;;;5034526;28;20029;-70
2022/09/20 09:40:30;;;;;;;0.17;0.15;;;17.30;99.90;;;;;;5021772;28;20084;-70
2022/09/20 09:43:00;;;;;;;0.08;0.08;;;17.30;99.90;;;;;;5023980;28;20050;-70
2022/09/20 09:45:37;;;;;;;0.22;0.22;;;17.20;99.90;;;;;;5019704;28;20080;-72
2022/09/20 09:48:26;;;;;;;0.20;0.20;;;16.90;99.90;;;;;;5031737;28;20087;-71
2022/09/20 09:51:14;;;;;;;0.10;0.10;;;16.60;99.90;;;;;;5029519;28;20049;-70
2022/09/20 09:53:41;;;;;;;0.10;0.10;;;16.40;99.90;;;;;;5020693;28;20076;-70
2022/09/20 09:56:37;;;;;;;0.00;0.00;;;16.30;99.90;;;;;;5023472;28;20060;-70
2022/09/20 09:59:27;;;;;;;0.20;0.20;;;16.20;99.90;;;;;;5023308;28;20190;-70
2022/09/20 10:02:18;;;;;;;0.52;0.43;;;16.10;99.90;;;;;;5026176;28;20080;-71
2022/09/20 10:04:58;;;;;;;0.08;0.08;;;16.00;99.90;;;;;;5030379;28;20091;-71
2022/09/20 10:07:43;;;;;;;0.10;0.10;;;15.90;99.90;;;;;;5020605;28;20355;-71
2022/09/20 10:10:42;;;;;;;0.00;0.00;;;15.80;99.90;;;;;;5017311;28;20044;-71
2022/09/20 10:14:09;;;;;;;0.00;0.00;;;15.80;99.90;;;;;;5046265;28;20511;-70
2022/09/20 10:17:05;;;;;;;0.25;0.25;;;15.80;99.90;;;;;;4980805;28;20181;-70
2022/09/20 10:19:55;;;;;;;0.03;0.03;;;15.70;99.90;;;;;;5023554;28;20432;-70
2022/09/20 10:22:34;;;;;;;0.00;0.00;;;15.70;99.90;;;;;;5048805;28;20467;-70
2022/09/20 10:25:18;;;;;;;0.40;0.40;;;15.70;99.90;;;;;;5050690;28;20899;-71
2022/09/20 10:28:22;;;;;;;0.40;0.40;;;15.70;99.90;;;;;;5048205;28;20071;-71
2022/09/20 10:31:00;;;;;;;0.10;0.10;;;15.60;99.90;;;;;;5035173;28;20065;-71
2022/09/20 10:33:31;;;;;;;0.03;0.03;;;15.60;99.90;;;;;;5029365;28;20460;-71
2022/09/20 10:36:09;;;;;;;0.10;0.10;;;15.60;99.90;;;;;;5037303;28;20086;-71
2022/09/20 10:38:38;;;;;;;0.10;0.10;;;15.60;99.90;;;;;;5044154;28;20083;-70
2022/09/20 10:44:41;;;;;;;0.10;0.10;;;15.70;99.90;;;;;;5027726;28;20049;-70
2022/09/20 10:47:14;;;;;;;0.10;0.10;;;15.80;99.90;;;;;;5025315;28;20681;-70
2022/09/20 10:49:57;;;;;;;0.00;0.00;;;16.10;99.90;;;;;;5044276;28;20161;-71
2022/09/20 10:52:26;;;;;;;;;;;16.30;99.90;;;;;;5049283;28;20049;-71
2022/09/20 10:55:02;;;;;;;0.10;0.10;;;16.20;99.90;;;;;;5045343;28;19921;-71
2022/09/20 10:57:49;;;;;;;0.47;0.47;;;16.10;99.90;;;;;;5049252;28;20061;-71
2022/09/20 11:00:41;;;;;;;0.47;0.47;;;16.00;99.90;;;;;;5028845;28;20118;-71
2022/09/20 11:03:10;;;;;;;0.10;0.10;;;16.10;99.90;;;;;;5029901;28;20140;-70
2022/09/20 11:06:05;;;;;;;0.00;0.00;;;16.30;99.90;;;;;;5042442;28;20425;-71
2022/09/20 11:08:37;;;;;;;0.40;0.40;;;16.50;99.90;;;;;;5014957;28;20049;-71
2022/09/20 11:11:34;;;;;;;0.00;0.00;;;16.40;99.90;;;;;;5036207;28;20123;-71
2022/09/20 11:14:10;;;;;;;0.10;0.10;;;16.20;99.90;;;;;;5040939;28;20132;-71
2022/09/20 11:16:52;;;;;;;0.03;0.03;;;16.00;99.90;;;;;;5036571;28;20520;-71
2022/09/20 11:19:27;;;;;;;0.10;0.10;;;15.90;99.90;;;;;;5037606;28;20572;-71
2022/09/20 11:22:13;;;;;;;0.00;0.00;;;15.90;99.90;;;;;;5029203;28;20053;-71
2022/09/20 11:24:53;;;;;;;0.03;0.03;;;15.80;99.90;;;;;;5028817;28;20489;-71
2022/09/20 11:27:31;;;;;;;0.08;0.08;;;16.00;99.90;;;;;;5033717;28;20051;-70
2022/09/20 11:30:15;;;;;;;0.00;0.00;;;16.00;99.90;;;;;;5045566;28;20049;-70
2022/09/20 11:32:52;;;;;;;0.00;0.00;;;16.10;99.90;;;;;;5029438;28;20053;-71
2022/09/20 11:35:31;;;;;;;0.00;0.00;;;16.40;99.90;;;;;;5029861;28;20041;-71
2022/09/20 11:38:10;;;;;;;0.20;0.20;;;16.40;99.90;;;;;;5029136;28;20099;-71
2022/09/20 11:40:51;;;;;;;1.02;0.68;;;16.50;99.90;;;;;;5027261;28;20049;-70
2022/09/20 11:43:18;;;;;;;0.17;0.17;;;16.40;99.90;;;;;;5033089;28;20037;-71
2022/09/20 11:45:48;;;;;;;0.10;0.10;;;16.30;99.90;;;;;;5029911;28;20076;-70
2022/09/20 11:48:20;;;;;;;0.43;0.43;;;16.20;99.90;;;;;;5027493;28;20045;-71
2022/09/20 11:51:01;;;;;;;0.10;0.10;;;16.20;99.90;;;;;;5020142;28;20072;-71
2022/09/20 11:53:41;;;;;;;0.00;0.00;;;16.20;99.90;;;;;;5032455;28;20045;-71
2022/09/20 11:56:17;;;;;;;0.10;0.10;;;16.20;99.90;;;;;;5023278;28;20046;-71
2022/09/20 11:58:54;;;;;;;0.10;0.10;;;16.20;99.90;;;;;;5038129;28;20049;-71
2022/09/20 12:01:30;;;;;;;0.00;0.00;;;16.30;99.90;;;;;;5026082;28;20060;-71
2022/09/20 12:04:00;;;;;;;0.10;0.10;;;16.30;99.90;;;;;;5013883;28;20124;-70
2022/09/20 12:06:35;;;;;;;0.00;0.00;;;16.40;99.90;;;;;;5043853;28;20045;-71
2022/09/20 12:09:05;;;;;;;0.10;0.10;;;16.50;99.90;;;;;;5036402;28;20432;-71
2022/09/20 12:11:37;;;;;;;15.60;0.75;;;16.50;99.90;;;;;;5022837;28;20045;-71
2022/09/20 12:14:21;;;;;;;0.07;0.07;;;16.50;99.90;;;;;;5028102;28;20063;-71
2022/09/20 12:16:48;;;;;;;0.20;0.20;;;16.50;99.90;;;;;;5043093;28;20048;-71
2022/09/20 12:19:35;;;;;;;0.10;0.10;;;16.60;99.90;;;;;;5048386;28;20052;-71
2022/09/20 12:22:02;;;;;;;0.28;0.20;;;16.70;99.90;;;;;;5043932;28;20048;-71
2022/09/20 12:24:34;;;;;;;0.00;0.00;;;17.20;99.90;;;;;;5048574;28;20080;-71
2022/09/20 12:27:28;;;;;;;0.00;0.00;;;17.30;99.90;;;;;;5047745;28;20179;-71
2022/09/20 12:30:16;;;;;;;0.00;0.00;;;17.60;99.90;;;;;;5048222;28;20075;-71
2022/09/20 12:32:45;;;;;;;0.00;0.00;;;17.70;99.90;;;;;;5037651;28;20497;-71
2022/09/20 12:35:34;;;;;;;0.00;0.00;;;17.80;99.90;;;;;;5027207;28;20493;-71
2022/09/20 12:38:16;;;;;;;0.30;0.30;;;18.10;99.90;;;;;;5039036;28;20041;-70
2022/09/20 12:41:03;;;;;;;0.00;0.00;;;18.50;99.90;;;;;;5026662;28;20057;-71
2022/09/20 12:43:31;;;;;;;0.00;0.00;;;19.40;99.90;;;;;;5025220;28;20073;-71
2022/09/20 12:45:57;;;;;;;0.15;0.15;;;19.70;99.90;;;;;;5027231;28;20490;-71
2022/09/20 12:48:23;;;;;;;0.00;0.00;;;20.40;99.90;;;;;;5026667;28;20045;-71
2022/09/20 12:54:09;;;;;;;1.00;0.90;;;20.30;99.90;;;;;;5019956;28;20069;-70
2022/09/20 12:56:37;;;;;;;0.00;0.00;;;19.50;99.90;;;;;;5032251;28;20090;-71
2022/09/20 12:59:06;;;;;;;0.10;0.10;;;18.90;99.70;;;;;;5026569;28;20049;-70
2022/09/20 13:01:35;;;;;;;0.00;0.00;;;19.70;99.60;;;;;;5032657;28;20128;-71
2022/09/20 13:04:39;;;;;;;0.10;0.10;;;20.20;98.30;;;;;;5033432;28;20040;-71
2022/09/20 13:07:32;;;;;;;0.10;0.10;;;20.40;98.30;;;;;;5037277;28;20049;-71
2022/09/20 13:10:02;;;;;;;0.00;0.00;;;20.90;98.10;;;;;;5030335;28;20569;-71
2022/09/20 13:12:28;;;;;;;0.03;0.03;;;21.10;98.00;;;;;;5033666;28;20042;-71
2022/09/20 13:14:54;;;;;;;0.00;0.00;;;21.30;98.60;;;;;;5052191;28;20065;-71
2022/09/20 13:17:29;;;;;;;0.00;0.00;;;21.70;98.20;;;;;;5037413;28;20134;-72
2022/09/20 13:19:56;;;;;;;0.00;0.00;;;21.70;97.30;;;;;;5027238;28;20718;-70
2022/09/20 13:22:33;;;;;;;0.00;0.00;;;21.60;97.40;;;;;;5024867;28;20051;-71
2022/09/20 13:25:01;;;;;;;0.00;0.00;;;21.80;97.30;;;;;;5033425;28;20049;-71
2022/09/20 13:27:33;;;;;;;0.08;0.08;;;21.90;98.00;;;;;;5033331;28;20140;-72
2022/09/20 13:30:14;;;;;;;0.05;0.05;;;22.00;97.60;;;;;;5031901;28;20045;-71
2022/09/20 13:32:41;;;;;;;0.30;0.30;;;22.30;97.10;;;;;;5024718;28;20045;-70
2022/09/20 13:35:20;;;;;;;0.00;0.00;;;21.90;97.00;;;;;;5040650;28;20052;-72
2022/09/20 13:37:53;;;;;;;0.10;0.10;;;22.00;97.70;;;;;;5048424;28;20046;-72
2022/09/20 13:40:34;;;;;;;0.00;0.00;;;21.80;97.20;;;;;;5037865;28;20053;-72
2022/09/20 13:43:03;;;;;;;0.00;0.00;;;21.90;96.40;;;;;;5045163;28;20124;-72
2022/09/20 13:45:30;;;;;;;0.00;0.00;;;21.90;95.20;;;;;;5031242;28;20046;-72
2022/09/20 13:47:58;;;;;;;0.00;0.00;;;21.90;96.30;;;;;;5035523;28;20133;-70
2022/09/20 13:50:32;;;;;;;0.00;0.00;;;21.90;97.40;;;;;;5024090;28;20038;-71
2022/09/20 13:53:00;;;;;;;0.00;0.00;;;22.10;96.80;;;;;;5023877;28;20038;-70
2022/09/20 13:55:37;;;;;;;0.00;0.00;;;22.10;96.70;;;;;;5031472;28;20049;-72
2022/09/20 13:58:21;;;;;;;0.00;0.00;;;22.10;96.30;;;;;;5027519;28;20076;-72
2022/09/20 14:00:53;;;;;;;0.00;0.00;;;21.80;94.70;;;;;;5027800;28;20065;-71
2022/09/20 14:03:20;;;;;;;0.00;0.00;;;21.00;95.50;;;;;;5028502;28;20057;-71